PWSweather.com
Personal Weather Stations
Station Observations
NORTHPOLE1
Tombur Subdivision, North Pole, AK 99705

Tombur SubdivisionNorth Pole, AK 99705

Lat: 64.774039, Lon: -147.284862

Elevation: 434

Station Type: Davis Vantage Pro 2

http://kl7ac.com

High Low Average
Temperature 2.6°F-16.3°C -9.3°F-22.9°C -4.7°F-20.4°C
Dew Point -7.4°F-21.9°C -16.4°F-26.9°C -12.9°F-24.9°C
Winds 12.0 mph 19.3 kmh 1.0 mph 1.6 kmh 5.0 mph NE8.0 kmh NE
Wind Gusts 13.0 mph20.9 kmh 2.0 mph3.2 kmh 7.0 mph11.3 kmh
Humidity 72% 61% 67%
Pressure 29.91 in1012.9 mb 29.88 in1011.9 mb -
Precipitation 0.00 in0.0 mm - -
Hour Temp Dew Point Humidity Winds Wind Gusts Pressure Precip Precip Rate Daily Precip Total
12:10 AM -5.6°F-20.9°C -14.0°F-25.6°C 66% 10.0 mph NE16.1 kmh NE 10.0 mph16.1 kmh 29.88 in1011.9 mb 0.00 in0.0 mm 0.00 in/hr0.0 mm/hr 0.00 in0.0 mm
12:20 AM -5.8°F-21.0°C -14.2°F-25.7°C 66% 3.0 mph ENE4.8 kmh ENE 5.0 mph8.0 kmh 29.88 in1011.9 mb 0.00 in0.0 mm 0.00 in/hr0.0 mm/hr 0.00 in0.0 mm
12:30 AM -5.9°F-21.1°C -14.3°F-25.7°C 66% 7.0 mph NE11.3 kmh NE 7.0 mph11.3 kmh 29.88 in1011.9 mb 0.00 in0.0 mm 0.00 in/hr0.0 mm/hr 0.00 in0.0 mm
12:40 AM -5.9°F-21.1°C -14.3°F-25.7°C 66% 4.0 mph NE6.4 kmh NE 5.0 mph8.0 kmh 29.88 in1011.9 mb 0.00 in0.0 mm 0.00 in/hr0.0 mm/hr 0.00 in0.0 mm
12:50 AM -5.7°F-20.9°C -14.1°F-25.6°C 66% 11.0 mph NE17.7 kmh NE 11.0 mph17.7 kmh 29.88 in1011.9 mb 0.00 in0.0 mm 0.00 in/hr0.0 mm/hr 0.00 in0.0 mm
01:00 AM -5.5°F-20.8°C -13.9°F-25.5°C 66% 4.0 mph NE6.4 kmh NE 8.0 mph12.9 kmh 29.88 in1011.9 mb 0.00 in0.0 mm 0.00 in/hr0.0 mm/hr 0.00 in0.0 mm
01:10 AM -5.5°F-20.8°C -13.9°F-25.5°C 66% 12.0 mph NE19.3 kmh NE 12.0 mph19.3 kmh 29.88 in1011.9 mb 0.00 in0.0 mm 0.00 in/hr0.0 mm/hr 0.00 in0.0 mm
01:20 AM -5.4°F-20.8°C -13.8°F-25.4°C 66% 12.0 mph NE19.3 kmh NE 12.0 mph19.3 kmh 29.88 in1011.9 mb 0.00 in0.0 mm 0.00 in/hr0.0 mm/hr 0.00 in0.0 mm
01:30 AM -5.2°F-20.7°C -13.6°F-25.3°C 66% 9.0 mph NE14.5 kmh NE 13.0 mph20.9 kmh 29.88 in1011.9 mb 0.00 in0.0 mm 0.00 in/hr0.0 mm/hr 0.00 in0.0 mm
01:40 AM -5.1°F-20.6°C -13.5°F-25.3°C 66% 5.0 mph ENE8.0 kmh ENE 12.0 mph19.3 kmh 29.88 in1011.9 mb 0.00 in0.0 mm 0.00 in/hr0.0 mm/hr 0.00 in0.0 mm
01:50 AM -5.0°F-20.6°C -13.4°F-25.2°C 66% 6.0 mph NE9.7 kmh NE 6.0 mph9.7 kmh 29.88 in1011.9 mb 0.00 in0.0 mm 0.00 in/hr0.0 mm/hr 0.00 in0.0 mm
01:59 AM -5.0°F-20.6°C -13.4°F-25.2°C 66% 5.0 mph NE8.0 kmh NE 10.0 mph16.1 kmh 29.88 in1011.9 mb 0.00 in0.0 mm 0.00 in/hr0.0 mm/hr 0.00 in0.0 mm
02:10 AM -5.0°F-20.6°C -13.4°F-25.2°C 66% 10.0 mph NE16.1 kmh NE 10.0 mph16.1 kmh 29.88 in1011.9 mb 0.00 in0.0 mm 0.00 in/hr0.0 mm/hr 0.00 in0.0 mm
02:20 AM -5.0°F-20.6°C -13.4°F-25.2°C 66% 5.0 mph NE8.0 kmh NE 5.0 mph8.0 kmh 29.88 in1011.9 mb 0.00 in0.0 mm 0.00 in/hr0.0 mm/hr 0.00 in0.0 mm
02:30 AM -5.3°F-20.7°C -13.7°F-25.4°C 66% 6.0 mph NE9.7 kmh NE 6.0 mph9.7 kmh 29.88 in1011.9 mb 0.00 in0.0 mm 0.00 in/hr0.0 mm/hr 0.00 in0.0 mm
02:40 AM -5.8°F-21.0°C -14.2°F-25.7°C 66% 6.0 mph NE9.7 kmh NE 11.0 mph17.7 kmh 29.89 in1012.2 mb 0.00 in0.0 mm 0.00 in/hr0.0 mm/hr 0.00 in0.0 mm
02:50 AM -6.0°F-21.1°C -14.4°F-25.8°C 66% 6.0 mph NE9.7 kmh NE 6.0 mph9.7 kmh 29.88 in1011.9 mb 0.00 in0.0 mm 0.00 in/hr0.0 mm/hr 0.00 in0.0 mm
03:00 AM -6.1°F-21.2°C -14.2°F-25.7°C 67% 6.0 mph ENE9.7 kmh ENE 7.0 mph11.3 kmh 29.88 in1011.9 mb 0.00 in0.0 mm 0.00 in/hr0.0 mm/hr 0.00 in0.0 mm
03:10 AM -6.4°F-21.3°C -14.5°F-25.8°C 67% 1.0 mph NE1.6 kmh NE 5.0 mph8.0 kmh 29.88 in1011.9 mb 0.00 in0.0 mm 0.00 in/hr0.0 mm/hr 0.00 in0.0 mm
03:20 AM -6.7°F-21.5°C -14.5°F-25.8°C 68% 4.0 mph NE6.4 kmh NE 4.0 mph6.4 kmh 29.89 in1012.2 mb 0.00 in0.0 mm 0.00 in/hr0.0 mm/hr 0.00 in0.0 mm
03:30 AM -7.0°F-21.7°C -14.5°F-25.8°C 69% 6.0 mph NE9.7 kmh NE 7.0 mph11.3 kmh 29.89 in1012.2 mb 0.00 in0.0 mm 0.00 in/hr0.0 mm/hr 0.00 in0.0 mm
03:40 AM -7.2°F-21.8°C -14.7°F-25.9°C 69% 4.0 mph NE6.4 kmh NE 4.0 mph6.4 kmh 29.88 in1011.9 mb 0.00 in0.0 mm 0.00 in/hr0.0 mm/hr 0.00 in0.0 mm
03:50 AM -7.3°F-21.8°C -14.8°F-26.0°C 69% 6.0 mph NE9.7 kmh NE 7.0 mph11.3 kmh 29.88 in1011.9 mb 0.00 in0.0 mm 0.00 in/hr0.0 mm/hr 0.00 in0.0 mm
04:00 AM -7.5°F-21.9°C -15.0°F-26.1°C 69% 4.0 mph NE6.4 kmh NE 10.0 mph16.1 kmh 29.88 in1011.9 mb 0.00 in0.0 mm 0.00 in/hr0.0 mm/hr 0.00 in0.0 mm
04:10 AM -7.5°F-21.9°C -15.0°F-26.1°C 69% 6.0 mph NE9.7 kmh NE 8.0 mph12.9 kmh 29.89 in1012.2 mb 0.00 in0.0 mm 0.00 in/hr0.0 mm/hr 0.00 in0.0 mm
04:20 AM -7.6°F-22.0°C -15.1°F-26.2°C 69% 7.0 mph NE11.3 kmh NE 7.0 mph11.3 kmh 29.89 in1012.2 mb 0.00 in0.0 mm 0.00 in/hr0.0 mm/hr 0.00 in0.0 mm
04:30 AM -7.8°F-22.1°C -15.2°F-26.2°C 69% 5.0 mph NE8.0 kmh NE 5.0 mph8.0 kmh 29.89 in1012.2 mb 0.00 in0.0 mm 0.00 in/hr0.0 mm/hr 0.00 in0.0 mm
04:40 AM -7.8°F-22.1°C -15.2°F-26.2°C 69% 8.0 mph NE12.9 kmh NE 8.0 mph12.9 kmh 29.89 in1012.2 mb 0.00 in0.0 mm 0.00 in/hr0.0 mm/hr 0.00 in0.0 mm
04:50 AM -7.8°F-22.1°C -15.2°F-26.2°C 69% 2.0 mph NE3.2 kmh NE 3.0 mph4.8 kmh 29.89 in1012.2 mb 0.00 in0.0 mm 0.00 in/hr0.0 mm/hr 0.00 in0.0 mm
05:00 AM -7.9°F-22.2°C -15.3°F-26.3°C 69% 3.0 mph NE4.8 kmh NE 5.0 mph8.0 kmh 29.89 in1012.2 mb 0.00 in0.0 mm 0.00 in/hr0.0 mm/hr 0.00 in0.0 mm
05:10 AM -8.1°F-22.3°C -15.5°F-26.4°C 69% 3.0 mph NNE4.8 kmh NNE 4.0 mph6.4 kmh 29.89 in1012.2 mb 0.00 in0.0 mm 0.00 in/hr0.0 mm/hr 0.00 in0.0 mm
05:20 AM -8.2°F-22.3°C -15.6°F-26.4°C 69% 6.0 mph NE9.7 kmh NE 10.0 mph16.1 kmh 29.89 in1012.2 mb 0.00 in0.0 mm 0.00 in/hr0.0 mm/hr 0.00 in0.0 mm
05:30 AM -7.9°F-22.2°C -15.3°F-26.3°C 69% 7.0 mph ENE11.3 kmh ENE 7.0 mph11.3 kmh 29.89 in1012.2 mb 0.00 in0.0 mm 0.00 in/hr0.0 mm/hr 0.00 in0.0 mm
05:40 AM -7.5°F-21.9°C -15.2°F-26.2°C 68% 3.0 mph NE4.8 kmh NE 4.0 mph6.4 kmh 29.89 in1012.2 mb 0.00 in0.0 mm 0.00 in/hr0.0 mm/hr 0.00 in0.0 mm
05:50 AM -7.3°F-21.8°C -15.1°F-26.2°C 68% 6.0 mph NE9.7 kmh NE 6.0 mph9.7 kmh 29.89 in1012.2 mb 0.00 in0.0 mm 0.00 in/hr0.0 mm/hr 0.00 in0.0 mm
06:00 AM -7.2°F-21.8°C -15.3°F-26.3°C 67% 2.0 mph NE3.2 kmh NE 10.0 mph16.1 kmh 29.89 in1012.2 mb 0.00 in0.0 mm 0.00 in/hr0.0 mm/hr 0.00 in0.0 mm
06:10 AM -7.3°F-21.8°C -15.3°F-26.3°C 67% 7.0 mph NE11.3 kmh NE 9.0 mph14.5 kmh 29.89 in1012.2 mb 0.00 in0.0 mm 0.00 in/hr0.0 mm/hr 0.00 in0.0 mm
06:20 AM -7.7°F-22.1°C -15.7°F-26.5°C 67% 3.0 mph NE4.8 kmh NE 3.0 mph4.8 kmh 29.89 in1012.2 mb 0.00 in0.0 mm 0.00 in/hr0.0 mm/hr 0.00 in0.0 mm
06:30 AM -7.9°F-22.2°C -15.9°F-26.6°C 67% 2.0 mph NE3.2 kmh NE 3.0 mph4.8 kmh 29.89 in1012.2 mb 0.00 in0.0 mm 0.00 in/hr0.0 mm/hr 0.00 in0.0 mm
06:40 AM -8.2°F-22.3°C -15.9°F-26.6°C 68% 3.0 mph NE4.8 kmh NE 7.0 mph11.3 kmh 29.89 in1012.2 mb 0.00 in0.0 mm 0.00 in/hr0.0 mm/hr 0.00 in0.0 mm
06:50 AM -8.6°F-22.6°C -16.3°F-26.8°C 68% 2.0 mph NNE3.2 kmh NNE 3.0 mph4.8 kmh 29.90 in1012.5 mb 0.00 in0.0 mm 0.00 in/hr0.0 mm/hr 0.00 in0.0 mm
06:59 AM -9.0°F-22.8°C -16.4°F-26.9°C 69% 2.0 mph NNE3.2 kmh NNE 4.0 mph6.4 kmh 29.90 in1012.5 mb 0.00 in0.0 mm 0.00 in/hr0.0 mm/hr 0.00 in0.0 mm
07:10 AM -9.3°F-22.9°C -16.4°F-26.9°C 70% 2.0 mph NE3.2 kmh NE 3.0 mph4.8 kmh 29.90 in1012.5 mb 0.00 in0.0 mm 0.00 in/hr0.0 mm/hr 0.00 in0.0 mm
07:20 AM -9.3°F-22.9°C -15.9°F-26.6°C 72% 4.0 mph NNE6.4 kmh NNE 4.0 mph6.4 kmh 29.90 in1012.5 mb 0.00 in0.0 mm 0.00 in/hr0.0 mm/hr 0.00 in0.0 mm
07:30 AM -9.2°F-22.9°C -15.8°F-26.6°C 72% 1.0 mph NNE1.6 kmh NNE 6.0 mph9.7 kmh 29.90 in1012.5 mb 0.00 in0.0 mm 0.00 in/hr0.0 mm/hr 0.00 in0.0 mm
07:40 AM -9.0°F-22.8°C -15.6°F-26.4°C 72% 3.0 mph NNE4.8 kmh NNE 4.0 mph6.4 kmh 29.90 in1012.5 mb 0.00 in0.0 mm 0.00 in/hr0.0 mm/hr 0.00 in0.0 mm
07:50 AM -8.7°F-22.6°C -15.3°F-26.3°C 72% 3.0 mph NNE4.8 kmh NNE 3.0 mph4.8 kmh 29.90 in1012.5 mb 0.00 in0.0 mm 0.00 in/hr0.0 mm/hr 0.00 in0.0 mm
07:59 AM -8.3°F-22.4°C -14.9°F-26.1°C 72% 3.0 mph NE4.8 kmh NE 3.0 mph4.8 kmh 29.90 in1012.5 mb 0.00 in0.0 mm 0.00 in/hr0.0 mm/hr 0.00 in0.0 mm
08:10 AM -8.0°F-22.2°C -14.6°F-25.9°C 72% 1.0 mph NE1.6 kmh NE 2.0 mph3.2 kmh 29.90 in1012.5 mb 0.00 in0.0 mm 0.00 in/hr0.0 mm/hr 0.00 in0.0 mm
08:20 AM -7.9°F-22.2°C -14.5°F-25.8°C 72% 3.0 mph NE4.8 kmh NE 6.0 mph9.7 kmh 29.90 in1012.5 mb 0.00 in0.0 mm 0.00 in/hr0.0 mm/hr 0.00 in0.0 mm
08:30 AM -7.8°F-22.1°C -14.4°F-25.8°C 72% 5.0 mph NE8.0 kmh NE 5.0 mph8.0 kmh 29.90 in1012.5 mb 0.00 in0.0 mm 0.00 in/hr0.0 mm/hr 0.00 in0.0 mm
08:40 AM -7.7°F-22.1°C -14.3°F-25.7°C 72% 5.0 mph NE8.0 kmh NE 5.0 mph8.0 kmh 29.90 in1012.5 mb 0.00 in0.0 mm 0.00 in/hr0.0 mm/hr 0.00 in0.0 mm
08:50 AM -7.6°F-22.0°C -14.2°F-25.7°C 72% 1.0 mph NE1.6 kmh NE 3.0 mph4.8 kmh 29.90 in1012.5 mb 0.00 in0.0 mm 0.00 in/hr0.0 mm/hr 0.00 in0.0 mm
09:00 AM -7.4°F-21.9°C -14.3°F-25.7°C 71% 5.0 mph NNE8.0 kmh NNE 7.0 mph11.3 kmh 29.90 in1012.5 mb 0.00 in0.0 mm 0.00 in/hr0.0 mm/hr 0.00 in0.0 mm
09:10 AM -7.2°F-21.8°C -14.1°F-25.6°C 71% 4.0 mph NNE6.4 kmh NNE 5.0 mph8.0 kmh 29.90 in1012.5 mb 0.00 in0.0 mm 0.00 in/hr0.0 mm/hr 0.00 in0.0 mm
09:19 AM -6.9°F-21.6°C -14.1°F-25.6°C 70% 3.0 mph N4.8 kmh N 3.0 mph4.8 kmh 29.91 in1012.9 mb 0.00 in0.0 mm 0.00 in/hr0.0 mm/hr 0.00 in0.0 mm
09:30 AM -6.5°F-21.4°C -13.7°F-25.4°C 70% 1.0 mph NE1.6 kmh NE 5.0 mph8.0 kmh 29.90 in1012.5 mb 0.00 in0.0 mm 0.00 in/hr0.0 mm/hr 0.00 in0.0 mm
09:39 AM -6.1°F-21.2°C -13.3°F-25.2°C 70% 2.0 mph NE3.2 kmh NE 7.0 mph11.3 kmh 29.90 in1012.5 mb 0.00 in0.0 mm 0.00 in/hr0.0 mm/hr 0.00 in0.0 mm
09:49 AM -5.5°F-20.8°C -12.7°F-24.8°C 70% 3.0 mph NE4.8 kmh NE 3.0 mph4.8 kmh 29.91 in1012.9 mb 0.00 in0.0 mm 0.00 in/hr0.0 mm/hr 0.00 in0.0 mm
09:59 AM -4.8°F-20.4°C -12.1°F-24.5°C 70% 2.0 mph NE3.2 kmh NE 6.0 mph9.7 kmh 29.91 in1012.9 mb 0.00 in0.0 mm 0.00 in/hr0.0 mm/hr 0.00 in0.0 mm
10:09 AM -4.1°F-20.1°C -11.7°F-24.3°C 69% 2.0 mph ENE3.2 kmh ENE 6.0 mph9.7 kmh 29.91 in1012.9 mb 0.00 in0.0 mm 0.00 in/hr0.0 mm/hr 0.00 in0.0 mm
10:20 AM -3.5°F-19.7°C -11.4°F-24.1°C 68% 2.0 mph NE3.2 kmh NE 3.0 mph4.8 kmh 29.91 in1012.9 mb 0.00 in0.0 mm 0.00 in/hr0.0 mm/hr 0.00 in0.0 mm
10:30 AM -2.9°F-19.4°C -10.8°F-23.8°C 68% 1.0 mph NE1.6 kmh NE 4.0 mph6.4 kmh 29.91 in1012.9 mb 0.00 in0.0 mm 0.00 in/hr0.0 mm/hr 0.00 in0.0 mm
10:40 AM -2.4°F-19.1°C -10.6°F-23.7°C 67% 9.0 mph NNE14.5 kmh NNE 9.0 mph14.5 kmh 29.91 in1012.9 mb 0.00 in0.0 mm 0.00 in/hr0.0 mm/hr 0.00 in0.0 mm
10:50 AM -2.1°F-18.9°C -10.7°F-23.7°C 66% 5.0 mph NNW8.0 kmh NNW 5.0 mph8.0 kmh 29.91 in1012.9 mb 0.00 in0.0 mm 0.00 in/hr0.0 mm/hr 0.00 in0.0 mm
11:00 AM -1.6°F-18.7°C -9.9°F-23.3°C 67% 1.0 mph NE1.6 kmh NE 3.0 mph4.8 kmh 29.91 in1012.9 mb 0.00 in0.0 mm 0.00 in/hr0.0 mm/hr 0.00 in0.0 mm
11:10 AM -1.1°F-18.4°C -10.0°F-23.3°C 65% 3.0 mph NE4.8 kmh NE 9.0 mph14.5 kmh 29.91 in1012.9 mb 0.00 in0.0 mm 0.00 in/hr0.0 mm/hr 0.00 in0.0 mm
11:20 AM -0.8°F-18.2°C -9.7°F-23.2°C 65% 2.0 mph NE3.2 kmh NE 5.0 mph8.0 kmh 29.91 in1012.9 mb 0.00 in0.0 mm 0.00 in/hr0.0 mm/hr 0.00 in0.0 mm
11:30 AM -0.5°F-18.1°C -9.8°F-23.2°C 64% 6.0 mph NE9.7 kmh NE 7.0 mph11.3 kmh 29.91 in1012.9 mb 0.00 in0.0 mm 0.00 in/hr0.0 mm/hr 0.00 in0.0 mm
11:40 AM -0.1°F-17.8°C -9.1°F-22.8°C 65% 5.0 mph ENE8.0 kmh ENE 11.0 mph17.7 kmh 29.91 in1012.9 mb 0.00 in0.0 mm 0.00 in/hr0.0 mm/hr 0.00 in0.0 mm
11:50 AM 0.3°F-17.6°C -9.0°F-22.8°C 64% 8.0 mph NE12.9 kmh NE 9.0 mph14.5 kmh 29.91 in1012.9 mb 0.00 in0.0 mm 0.00 in/hr0.0 mm/hr 0.00 in0.0 mm
12:00 PM 0.6°F-17.4°C -9.3°F-22.9°C 62% 5.0 mph NE8.0 kmh NE 10.0 mph16.1 kmh 29.91 in1012.9 mb 0.00 in0.0 mm 0.00 in/hr0.0 mm/hr 0.00 in0.0 mm
12:10 PM 0.8°F-17.3°C -8.8°F-22.7°C 63% 1.0 mph E1.6 kmh E 6.0 mph9.7 kmh 29.91 in1012.9 mb 0.00 in0.0 mm 0.00 in/hr0.0 mm/hr 0.00 in0.0 mm
12:20 PM 1.0°F-17.2°C -9.0°F-22.8°C 62% 7.0 mph NE11.3 kmh NE 9.0 mph14.5 kmh 29.91 in1012.9 mb 0.00 in0.0 mm 0.00 in/hr0.0 mm/hr 0.00 in0.0 mm
12:30 PM 1.3°F-17.1°C -8.4°F-22.4°C 63% 12.0 mph NE19.3 kmh NE 12.0 mph19.3 kmh 29.91 in1012.9 mb 0.00 in0.0 mm 0.00 in/hr0.0 mm/hr 0.00 in0.0 mm
12:40 PM 1.4°F-17.0°C -8.6°F-22.6°C 62% 1.0 mph NNE1.6 kmh NNE 7.0 mph11.3 kmh 29.91 in1012.9 mb 0.00 in0.0 mm 0.00 in/hr0.0 mm/hr 0.00 in0.0 mm
12:50 PM 1.6°F-16.9°C -8.4°F-22.4°C 62% 11.0 mph NNE17.7 kmh NNE 11.0 mph17.7 kmh 29.91 in1012.9 mb 0.00 in0.0 mm 0.00 in/hr0.0 mm/hr 0.00 in0.0 mm
01:00 PM 1.9°F-16.7°C -7.8°F-22.1°C 63% 1.0 mph N1.6 kmh N 6.0 mph9.7 kmh 29.91 in1012.9 mb 0.00 in0.0 mm 0.00 in/hr0.0 mm/hr 0.00 in0.0 mm
01:10 PM 2.2°F-16.6°C -7.8°F-22.1°C 62% 6.0 mph NNE9.7 kmh NNE 12.0 mph19.3 kmh 29.91 in1012.9 mb 0.00 in0.0 mm 0.00 in/hr0.0 mm/hr 0.00 in0.0 mm
01:20 PM 2.1°F-16.6°C -8.3°F-22.4°C 61% 4.0 mph NE6.4 kmh NE 10.0 mph16.1 kmh 29.90 in1012.5 mb 0.00 in0.0 mm 0.00 in/hr0.0 mm/hr 0.00 in0.0 mm
01:30 PM 2.1°F-16.6°C -8.3°F-22.4°C 61% 10.0 mph NE16.1 kmh NE 10.0 mph16.1 kmh 29.90 in1012.5 mb 0.00 in0.0 mm 0.00 in/hr0.0 mm/hr 0.00 in0.0 mm
01:40 PM 2.2°F-16.6°C -8.2°F-22.3°C 61% 2.0 mph NE3.2 kmh NE 6.0 mph9.7 kmh 29.90 in1012.5 mb 0.00 in0.0 mm 0.00 in/hr0.0 mm/hr 0.00 in0.0 mm
01:50 PM 2.2°F-16.6°C -8.2°F-22.3°C 61% 5.0 mph NE8.0 kmh NE 5.0 mph8.0 kmh 29.90 in1012.5 mb 0.00 in0.0 mm 0.00 in/hr0.0 mm/hr 0.00 in0.0 mm
02:00 PM 2.1°F-16.6°C -8.3°F-22.4°C 61% 5.0 mph NNE8.0 kmh NNE 11.0 mph17.7 kmh 29.90 in1012.5 mb 0.00 in0.0 mm 0.00 in/hr0.0 mm/hr 0.00 in0.0 mm
02:10 PM 2.1°F-16.6°C -7.9°F-22.2°C 62% 3.0 mph NE4.8 kmh NE 5.0 mph8.0 kmh 29.90 in1012.5 mb 0.00 in0.0 mm 0.00 in/hr0.0 mm/hr 0.00 in0.0 mm
02:20 PM 2.3°F-16.5°C -7.7°F-22.1°C 62% 1.0 mph NE1.6 kmh NE 6.0 mph9.7 kmh 29.90 in1012.5 mb 0.00 in0.0 mm 0.00 in/hr0.0 mm/hr 0.00 in0.0 mm
02:30 PM 2.6°F-16.3°C -7.4°F-21.9°C 62% 4.0 mph NE6.4 kmh NE 6.0 mph9.7 kmh 29.89 in1012.2 mb 0.00 in0.0 mm 0.00 in/hr0.0 mm/hr 0.00 in0.0 mm
02:40 PM 2.8°F-16.2°C -7.3°F-21.8°C 62% 3.0 mph NE4.8 kmh NE 5.0 mph8.0 kmh 29.89 in1012.2 mb 0.00 in0.0 mm 0.00 in/hr0.0 mm/hr 0.00 in0.0 mm
02:50 PM 3.1°F-16.1°C -7.0°F-21.7°C 62% 5.0 mph NE8.0 kmh NE 7.0 mph11.3 kmh 29.89 in1012.2 mb 0.00 in0.0 mm 0.00 in/hr0.0 mm/hr 0.00 in0.0 mm